Accueil
METAR-TAF:

METAR-TAF

Aéroports :

Pérouse, Italie

Aéroport de Pérouse-Sant'Egidio

latitude: 43-05N, longitude: 012-30E, altitude: 208 m

Observation

Le bulletin a été fait il y a 33 minutes, à 09:50 UTC
Vent 14 kt de nord/nord-est avec des rafales jusqu'à 24 kt
Température 12°C
Humidité 67%
Pression 1004 hPa
Visibilité 10 km ou plus
Nuages épars à une hauteur de 3500 ft

METAR: LIRZ 240950Z 02014G24KT 9999 SCT035 12/06 Q1004

Heure: 11:23 (10:23 UTC)

Prévision

Le bulletin a été fait il y a 3 heures et 19 minutes, à 07:04 UTC
Prévision valable du 24 à 06 UTC au 25 à 06 UTC
Vent 10 kt de nord/nord-est
Visibilité: 7000 m
Nuages épars à une hauteur de 2000 ft
Nuages fragmentés à une hauteur de 5000 ft
Evoluant progressivement
du 24 à 21 UTC au 24 à 24 UTC
pluie

TAF: LIRZ 240704Z 2406/2506 02010KT 7000 SCT020 BKN050 BECMG 2421/2424 RA

Observations et prévisions météorologiques de plus de 4000 aéroports (messages METAR et TAF).

Les stations disponibles sont représentées par des disques jaunes et rouges sur la carte.

Passer la souris dessus pour voir le nom de la station.

Cliquer dessus pour voir les observations et prévisions météorologiques.

Pour changer de carte: cliquez sur les boutons verts avec une croix noire pour zoomer, sur le bouton vert avec un tiret pour effectuer un zoom arrière, ou sur les flèches vertes pour les cartes adjacentes.


METAR-TAF: